createdAt,value
2018-05-11T00:00:09.990Z,1001.48
2018-05-11T00:01:09.987Z,1001.53
2018-05-11T00:02:12.809Z,1001.49
2018-05-11T00:03:09.989Z,1001.53
2018-05-11T00:04:09.994Z,1001.51
2018-05-11T00:05:09.991Z,1001.53
2018-05-11T00:06:09.992Z,1001.51
2018-05-11T00:07:09.993Z,1001.53
2018-05-11T00:08:09.995Z,1001.54
2018-05-11T00:09:09.996Z,1001.57
2018-05-11T00:10:09.996Z,1001.57
2018-05-11T00:11:09.996Z,1001.52
2018-05-11T00:12:10.001Z,1001.57
2018-05-11T00:13:10.020Z,1001.56
2018-05-11T00:14:10.000Z,1001.56
2018-05-11T00:15:10.005Z,1001.58
2018-05-11T00:16:10.013Z,1001.56
2018-05-11T00:17:10.005Z,1001.56
2018-05-11T00:18:10.015Z,1001.57
2018-05-11T00:19:10.015Z,1001.63
2018-05-11T00:20:10.015Z,1001.61
2018-05-11T00:21:10.006Z,1001.60
2018-05-11T00:22:10.009Z,1001.59
2018-05-11T00:23:10.009Z,1001.63
2018-05-11T00:24:10.031Z,1001.60
2018-05-11T00:25:10.017Z,1001.62
2018-05-11T00:26:10.011Z,1001.62
2018-05-11T00:27:10.011Z,1001.60
2018-05-11T00:28:10.015Z,1001.63
2018-05-11T00:29:10.014Z,1001.58
2018-05-11T00:30:10.016Z,1001.58
2018-05-11T00:31:10.016Z,1001.58
2018-05-11T00:32:10.017Z,1001.60
2018-05-11T00:33:10.018Z,1001.60
2018-05-11T00:34:10.019Z,1001.63
2018-05-11T00:35:10.021Z,1001.64
2018-05-11T00:36:10.021Z,1001.64
2018-05-11T00:37:10.022Z,1001.62
2018-05-11T00:38:10.025Z,1001.66
2018-05-11T00:39:10.029Z,1001.65
2018-05-11T00:40:10.024Z,1001.67
2018-05-11T00:41:10.025Z,1001.65
2018-05-11T00:42:10.027Z,1001.68
2018-05-11T00:43:10.027Z,1001.66
2018-05-11T00:44:10.029Z,1001.69
2018-05-11T00:45:10.040Z,1001.70
2018-05-11T00:46:10.032Z,1001.71
2018-05-11T00:47:10.030Z,1001.68
2018-05-11T00:48:10.033Z,1001.69
2018-05-11T00:49:10.033Z,1001.68
2018-05-11T00:50:10.036Z,1001.70
2018-05-11T00:51:10.069Z,1001.71
2018-05-11T00:52:10.035Z,1001.72
2018-05-11T00:53:10.038Z,1001.74
2018-05-11T00:54:10.043Z,1001.75
2018-05-11T00:55:10.037Z,1001.78
2018-05-11T00:56:10.057Z,1001.75
2018-05-11T00:57:10.043Z,1001.82
2018-05-11T00:58:10.077Z,1001.80
2018-05-11T00:59:10.041Z,1001.85
2018-05-11T01:00:10.043Z,1001.87
2018-05-11T01:01:10.043Z,1001.86
2018-05-11T01:02:10.110Z,1001.87
2018-05-11T01:03:10.045Z,1001.86
2018-05-11T01:04:10.045Z,1001.87
2018-05-11T01:05:10.046Z,1001.86
2018-05-11T01:06:10.048Z,1001.89
2018-05-11T01:07:10.048Z,1001.89
2018-05-11T01:08:10.050Z,1001.94
2018-05-11T01:09:10.050Z,1001.97
2018-05-11T01:10:10.057Z,1001.96
2018-05-11T01:11:10.051Z,1001.99
2018-05-11T01:12:10.052Z,1001.98
2018-05-11T01:13:10.053Z,1001.97
2018-05-11T01:14:10.064Z,1002.00
2018-05-11T01:15:10.054Z,1002.03
2018-05-11T01:16:10.055Z,1002.01
2018-05-11T01:17:10.057Z,1002.03
2018-05-11T01:18:10.058Z,1002.04
2018-05-11T01:19:10.058Z,1002.04
2018-05-11T01:20:10.061Z,1002.03
2018-05-11T01:21:10.060Z,1002.05
2018-05-11T01:22:10.063Z,1002.03
2018-05-11T01:23:10.062Z,1002.00
2018-05-11T01:24:10.064Z,1002.01
2018-05-11T01:25:10.064Z,1002.04
2018-05-11T01:26:10.071Z,1002.04
2018-05-11T01:27:10.065Z,1002.03
2018-05-11T01:28:10.069Z,1002.04
2018-05-11T01:29:10.072Z,1002.03
2018-05-11T01:30:10.068Z,1002.00
2018-05-11T01:31:10.103Z,1002.02
2018-05-11T01:32:10.259Z,1002.01
2018-05-11T01:33:10.070Z,1002.04
2018-05-11T01:34:10.071Z,1002.03
2018-05-11T01:35:10.071Z,1002.04
2018-05-11T01:36:10.074Z,1002.06
2018-05-11T01:37:10.075Z,1002.04
2018-05-11T01:38:10.075Z,1002.01
2018-05-11T01:39:10.075Z,1002.04
2018-05-11T01:40:10.077Z,1002.07
2018-05-11T01:41:10.078Z,1002.06
2018-05-11T01:42:10.079Z,1002.05
2018-05-11T01:43:10.078Z,1002.07
2018-05-11T01:44:10.081Z,1002.09
2018-05-11T01:45:10.088Z,1002.09
2018-05-11T01:46:10.081Z,1002.11
2018-05-11T01:47:10.084Z,1002.12
2018-05-11T01:48:10.082Z,1002.12
2018-05-11T01:49:10.083Z,1002.11
2018-05-11T01:50:10.085Z,1002.15
2018-05-11T01:51:10.086Z,1002.12
2018-05-11T01:52:10.089Z,1002.16
2018-05-11T01:53:10.088Z,1002.14
2018-05-11T01:54:10.088Z,1002.11
2018-05-11T01:55:10.090Z,1002.15
2018-05-11T01:56:10.092Z,1002.14
2018-05-11T01:57:10.091Z,1002.14
2018-05-11T01:58:10.092Z,1002.15
2018-05-11T01:59:10.092Z,1002.15
2018-05-11T02:00:10.093Z,1002.16
2018-05-11T02:01:10.097Z,1002.17
2018-05-11T02:02:10.097Z,1002.18
2018-05-11T02:03:10.637Z,1002.14
2018-05-11T02:04:10.145Z,1002.18
2018-05-11T02:05:10.096Z,1002.22
2018-05-11T02:06:10.101Z,1002.20
2018-05-11T02:07:10.100Z,1002.21
2018-05-11T02:08:10.099Z,1002.20
2018-05-11T02:09:10.102Z,1002.22
2018-05-11T02:10:10.101Z,1002.23
2018-05-11T02:11:10.102Z,1002.26
2018-05-11T02:12:10.103Z,1002.26
2018-05-11T02:13:10.106Z,1002.22
2018-05-11T02:14:10.104Z,1002.28
2018-05-11T02:15:10.103Z,1002.25
2018-05-11T02:16:10.105Z,1002.30
2018-05-11T02:17:10.106Z,1002.31
2018-05-11T02:18:10.107Z,1002.31
2018-05-11T02:19:10.107Z,1002.29
2018-05-11T02:20:10.114Z,1002.32
2018-05-11T02:21:10.143Z,1002.34
2018-05-11T02:22:10.109Z,1002.37
2018-05-11T02:23:10.109Z,1002.39
2018-05-11T02:24:10.168Z,1002.37
2018-05-11T02:25:10.111Z,1002.37
2018-05-11T02:26:10.113Z,1002.39
2018-05-11T02:27:10.112Z,1002.40
2018-05-11T02:28:10.122Z,1002.42
2018-05-11T02:29:10.113Z,1002.40
2018-05-11T02:30:10.114Z,1002.45
2018-05-11T02:31:10.115Z,1002.43
2018-05-11T02:32:10.118Z,1002.43
2018-05-11T02:33:10.116Z,1002.46
2018-05-11T02:34:11.038Z,1002.45
2018-05-11T02:35:10.116Z,1002.50
2018-05-11T02:36:10.119Z,1002.51
2018-05-11T02:37:10.118Z,1002.49
2018-05-11T02:38:10.118Z,1002.50
2018-05-11T02:39:10.121Z,1002.51
2018-05-11T02:40:10.123Z,1002.51
2018-05-11T02:41:10.122Z,1002.52
2018-05-11T02:42:10.121Z,1002.56
2018-05-11T02:43:10.123Z,1002.52
2018-05-11T02:44:10.122Z,1002.54
2018-05-11T02:45:10.123Z,1002.54
2018-05-11T02:46:10.124Z,1002.59
2018-05-11T02:47:10.124Z,1002.56
2018-05-11T02:48:10.125Z,1002.59
2018-05-11T02:49:10.126Z,1002.58
2018-05-11T02:50:10.127Z,1002.61
2018-05-11T02:51:10.126Z,1002.61
2018-05-11T02:52:10.126Z,1002.64
2018-05-11T02:53:10.128Z,1002.65
2018-05-11T02:54:10.129Z,1002.67
2018-05-11T02:55:10.131Z,1002.68
2018-05-11T02:56:10.129Z,1002.68
2018-05-11T02:57:10.133Z,1002.70
2018-05-11T02:58:10.134Z,1002.69
2018-05-11T02:59:10.131Z,1002.71
2018-05-11T03:00:10.138Z,1002.75
2018-05-11T03:01:10.132Z,1002.76
2018-05-11T03:02:10.132Z,1002.72
2018-05-11T03:03:10.133Z,1002.74
2018-05-11T03:04:10.134Z,1002.74
2018-05-11T03:05:10.137Z,1002.73
2018-05-11T03:06:10.136Z,1002.77
2018-05-11T03:07:10.145Z,1002.77
2018-05-11T03:08:10.136Z,1002.81
2018-05-11T03:09:10.138Z,1002.81
2018-05-11T03:10:10.138Z,1002.85
2018-05-11T03:11:10.138Z,1002.86
2018-05-11T03:12:10.148Z,1002.83
2018-05-11T03:13:10.140Z,1002.93
2018-05-11T03:14:10.140Z,1002.93
2018-05-11T03:15:10.141Z,1002.94
2018-05-11T03:16:10.142Z,1002.95
2018-05-11T03:17:10.141Z,1002.96
2018-05-11T03:18:33.908Z,1002.97
2018-05-11T03:19:10.154Z,1002.99
2018-05-11T03:20:10.145Z,1002.98
2018-05-11T03:21:10.143Z,1003.01
2018-05-11T03:22:10.145Z,1003.02
2018-05-11T03:23:10.147Z,1003.01
2018-05-11T03:24:10.145Z,1003.10
2018-05-11T03:25:10.147Z,1003.10
2018-05-11T03:26:10.149Z,1003.13
2018-05-11T03:27:10.147Z,1003.11
2018-05-11T03:28:10.148Z,1003.16
2018-05-11T03:29:10.149Z,1003.17
2018-05-11T03:30:10.151Z,1003.19
2018-05-11T03:31:10.150Z,1003.19
2018-05-11T03:32:10.151Z,1003.22
2018-05-11T03:33:10.196Z,1003.22
2018-05-11T03:34:10.153Z,1003.20
2018-05-11T03:35:10.154Z,1003.21
2018-05-11T03:36:10.153Z,1003.22
2018-05-11T03:37:10.155Z,1003.23
2018-05-11T03:38:10.157Z,1003.22
2018-05-11T03:39:10.175Z,1003.23
2018-05-11T03:40:10.154Z,1003.22
2018-05-11T03:41:10.163Z,1003.22
2018-05-11T03:42:10.157Z,1003.27
2018-05-11T03:43:10.158Z,1003.23
2018-05-11T03:44:10.158Z,1003.29
2018-05-11T03:45:10.160Z,1003.24
2018-05-11T03:46:10.160Z,1003.31
2018-05-11T03:47:10.162Z,1003.29
2018-05-11T03:48:10.164Z,1003.29
2018-05-11T03:49:10.162Z,1003.34
2018-05-11T03:50:10.165Z,1003.34
2018-05-11T03:51:10.162Z,1003.34
2018-05-11T03:52:10.163Z,1003.36
2018-05-11T03:53:10.165Z,1003.36
2018-05-11T03:54:10.167Z,1003.35
2018-05-11T03:55:10.165Z,1003.32
2018-05-11T03:56:10.166Z,1003.31
2018-05-11T03:57:10.169Z,1003.29
2018-05-11T03:58:10.168Z,1003.35
2018-05-11T03:59:10.166Z,1003.34
2018-05-11T04:00:10.168Z,1003.33
2018-05-11T04:01:10.168Z,1003.35
2018-05-11T04:02:10.169Z,1003.39
2018-05-11T04:03:10.171Z,1003.39
2018-05-11T04:04:10.177Z,1003.36
2018-05-11T04:05:10.173Z,1003.35
2018-05-11T04:06:10.177Z,1003.42
2018-05-11T04:07:10.199Z,1003.44
2018-05-11T04:08:10.173Z,1003.44
2018-05-11T04:09:10.174Z,1003.47
2018-05-11T04:10:10.173Z,1003.47
2018-05-11T04:11:10.177Z,1003.46
2018-05-11T04:12:10.179Z,1003.49
2018-05-11T04:13:10.238Z,1003.47
2018-05-11T04:14:10.177Z,1003.49
2018-05-11T04:15:10.178Z,1003.52
2018-05-11T04:16:10.181Z,1003.52
2018-05-11T04:17:10.180Z,1003.52
2018-05-11T04:18:10.180Z,1003.54
2018-05-11T04:19:10.180Z,1003.56
2018-05-11T04:20:10.181Z,1003.56
2018-05-11T04:21:10.183Z,1003.57
2018-05-11T04:22:10.183Z,1003.59
2018-05-11T04:23:10.185Z,1003.64
2018-05-11T04:24:10.187Z,1003.62
2018-05-11T04:25:10.186Z,1003.64
2018-05-11T04:26:10.187Z,1003.62
2018-05-11T04:27:10.187Z,1003.61
2018-05-11T04:28:10.186Z,1003.61
2018-05-11T04:29:10.187Z,1003.60
2018-05-11T04:30:10.255Z,1003.59
2018-05-11T04:31:10.190Z,1003.60
2018-05-11T04:32:10.189Z,1003.60
2018-05-11T04:33:10.190Z,1003.59
2018-05-11T04:34:10.195Z,1003.58
2018-05-11T04:35:10.189Z,1003.62
2018-05-11T04:36:10.192Z,1003.59
2018-05-11T04:37:10.587Z,1003.59
2018-05-11T04:38:10.196Z,1003.54
2018-05-11T04:39:10.197Z,1003.54
2018-05-11T04:40:10.193Z,1003.54
2018-05-11T04:41:10.195Z,1003.56
2018-05-11T04:42:10.196Z,1003.56
2018-05-11T04:43:10.195Z,1003.54
2018-05-11T04:44:10.201Z,1003.59
2018-05-11T04:45:10.200Z,1003.57
2018-05-11T04:46:10.200Z,1003.60
2018-05-11T04:47:10.202Z,1003.62
2018-05-11T04:48:10.216Z,1003.65
2018-05-11T04:49:10.203Z,1003.61
2018-05-11T04:50:10.203Z,1003.64
2018-05-11T04:51:10.208Z,1003.66
2018-05-11T04:52:10.203Z,1003.72
2018-05-11T04:53:10.202Z,1003.75
2018-05-11T04:54:10.225Z,1003.75
2018-05-11T04:55:10.216Z,1003.71
2018-05-11T04:56:10.203Z,1003.75
2018-05-11T04:57:10.208Z,1003.73
2018-05-11T04:58:10.205Z,1003.70
2018-05-11T04:59:10.206Z,1003.68
2018-05-11T05:00:10.206Z,1003.74
2018-05-11T05:01:10.212Z,1003.71
2018-05-11T05:02:10.207Z,1003.73
2018-05-11T05:03:10.212Z,1003.69
2018-05-11T05:04:10.209Z,1003.70
2018-05-11T05:05:10.214Z,1003.71
2018-05-11T05:06:10.211Z,1003.76
2018-05-11T05:07:10.210Z,1003.79
2018-05-11T05:08:10.936Z,1003.76
2018-05-11T05:09:10.211Z,1003.73
2018-05-11T05:10:10.212Z,1003.75
2018-05-11T05:11:10.219Z,1003.75
2018-05-11T05:12:10.216Z,1003.75
2018-05-11T05:13:10.214Z,1003.80
2018-05-11T05:14:10.218Z,1003.80
2018-05-11T05:15:10.215Z,1003.82
2018-05-11T05:16:10.245Z,1003.82
2018-05-11T05:17:10.237Z,1003.83
2018-05-11T05:18:10.223Z,1003.86
2018-05-11T05:19:10.267Z,1003.88
2018-05-11T05:20:10.220Z,1003.91
2018-05-11T05:21:10.221Z,1003.89
2018-05-11T05:22:10.223Z,1003.94
2018-05-11T05:23:10.223Z,1003.94
2018-05-11T05:24:10.227Z,1003.95
2018-05-11T05:25:10.227Z,1003.96
2018-05-11T05:26:10.228Z,1003.96
2018-05-11T05:27:10.230Z,1003.97
2018-05-11T05:28:10.232Z,1003.97
2018-05-11T05:29:10.233Z,1003.97
2018-05-11T05:30:10.267Z,1003.99
2018-05-11T05:31:10.234Z,1003.98
2018-05-11T05:32:10.240Z,1003.98
2018-05-11T05:33:10.312Z,1003.98
2018-05-11T05:34:10.283Z,1003.98
2018-05-11T05:35:10.240Z,1004.01
2018-05-11T05:36:10.244Z,1004.01
2018-05-11T05:37:10.243Z,1003.96
2018-05-11T05:38:10.245Z,1003.98
2018-05-11T05:39:10.286Z,1003.95
2018-05-11T05:40:10.247Z,1003.97
2018-05-11T05:41:10.253Z,1003.98
2018-05-11T05:42:10.251Z,1004.02
2018-05-11T05:43:10.250Z,1004.03
2018-05-11T05:44:10.253Z,1004.01
2018-05-11T05:45:10.254Z,1004.02
2018-05-11T05:46:10.258Z,1004.02
2018-05-11T05:47:10.256Z,1004.04
2018-05-11T05:48:10.257Z,1004.03
2018-05-11T05:49:10.259Z,1004.03
2018-05-11T05:50:10.261Z,1004.01
2018-05-11T05:51:10.262Z,1004.01
2018-05-11T05:52:10.334Z,1004.05
2018-05-11T05:53:10.268Z,1004.00
2018-05-11T05:54:10.266Z,1004.05
2018-05-11T05:55:10.268Z,1004.02
2018-05-11T05:56:10.271Z,1004.05
2018-05-11T05:57:10.280Z,1004.04
2018-05-11T05:58:10.280Z,1004.08
2018-05-11T05:59:10.272Z,1004.06
2018-05-11T06:00:10.275Z,1004.07
2018-05-11T06:01:10.279Z,1004.04
2018-05-11T06:02:10.280Z,1004.04
2018-05-11T06:03:10.278Z,1004.04
2018-05-11T06:04:10.279Z,1004.03
2018-05-11T06:05:10.280Z,1004.03
2018-05-11T06:06:10.283Z,1004.03
2018-05-11T06:07:10.288Z,1004.04
2018-05-11T06:08:10.371Z,1004.08
2018-05-11T06:09:10.286Z,1004.04
2018-05-11T06:10:10.291Z,1004.06
2018-05-11T06:11:10.300Z,1004.06
2018-05-11T06:12:10.290Z,1004.09
2018-05-11T06:13:10.296Z,1004.13
2018-05-11T06:14:10.298Z,1004.13
2018-05-11T06:15:10.295Z,1004.15
2018-05-11T06:16:10.297Z,1004.14
2018-05-11T06:17:10.305Z,1004.13
2018-05-11T06:18:10.298Z,1004.13
2018-05-11T06:19:10.299Z,1004.14
2018-05-11T06:20:10.299Z,1004.17
2018-05-11T06:21:10.305Z,1004.16
2018-05-11T06:22:10.303Z,1004.16
2018-05-11T06:23:10.339Z,1004.18
2018-05-11T06:24:10.314Z,1004.16
2018-05-11T06:25:10.308Z,1004.16
2018-05-11T06:26:10.308Z,1004.18
2018-05-11T06:27:10.310Z,1004.20
2018-05-11T06:28:10.315Z,1004.16
2018-05-11T06:29:10.313Z,1004.22
2018-05-11T06:30:10.315Z,1004.21
2018-05-11T06:31:10.319Z,1004.20
2018-05-11T06:32:10.319Z,1004.18
2018-05-11T06:33:10.318Z,1004.19
2018-05-11T06:34:10.320Z,1004.18
2018-05-11T06:35:10.396Z,1004.20
2018-05-11T06:36:10.496Z,1004.23
2018-05-11T06:37:10.386Z,1004.20
2018-05-11T06:38:10.363Z,1004.21
2018-05-11T06:39:10.341Z,1004.25
2018-05-11T06:40:10.327Z,1004.26
2018-05-11T06:41:10.329Z,1004.27
2018-05-11T06:42:10.409Z,1004.26
2018-05-11T06:43:10.367Z,1004.30
2018-05-11T06:44:10.335Z,1004.29
2018-05-11T06:45:10.334Z,1004.25
2018-05-11T06:46:10.335Z,1004.25
2018-05-11T06:47:10.336Z,1004.25
2018-05-11T06:48:10.338Z,1004.13
2018-05-11T06:49:10.338Z,1004.25
2018-05-11T06:50:10.340Z,1004.23
2018-05-11T06:51:10.347Z,1004.19
2018-05-11T06:52:10.342Z,1004.20
2018-05-11T06:53:10.346Z,1004.21
2018-05-11T06:54:10.348Z,1004.23
2018-05-11T06:55:10.351Z,1004.17
2018-05-11T06:56:10.347Z,1004.18
2018-05-11T06:57:10.356Z,1004.11
2018-05-11T06:58:10.352Z,1004.14
2018-05-11T06:59:10.377Z,1004.13
2018-05-11T07:00:10.364Z,1004.08
2018-05-11T07:01:10.388Z,1004.10
2018-05-11T07:02:10.364Z,1004.07
2018-05-11T07:03:10.355Z,1004.08
2018-05-11T07:04:10.356Z,1004.10
2018-05-11T07:05:10.379Z,1004.11
2018-05-11T07:06:10.368Z,1004.05
2018-05-11T07:07:10.360Z,1004.06
2018-05-11T07:08:10.362Z,1004.02
2018-05-11T07:09:10.385Z,1004.01
2018-05-11T07:10:10.378Z,1004.00
2018-05-11T07:11:10.528Z,1004.04
2018-05-11T07:12:10.366Z,1003.99
2018-05-11T07:13:10.368Z,1004.03
2018-05-11T07:14:10.411Z,1004.01
2018-05-11T07:15:10.376Z,1004.04
2018-05-11T07:16:10.372Z,1004.02
2018-05-11T07:17:10.375Z,1004.01
2018-05-11T07:18:10.377Z,1004.03
2018-05-11T07:19:10.386Z,1004.07
2018-05-11T07:20:10.378Z,1004.07
2018-05-11T07:21:10.378Z,1004.01
2018-05-11T07:22:10.381Z,1004.04
2018-05-11T07:23:10.382Z,1004.08
2018-05-11T07:24:10.384Z,1004.11
2018-05-11T07:25:10.385Z,1004.09
2018-05-11T07:26:10.393Z,1004.05
2018-05-11T07:27:10.434Z,1004.10
2018-05-11T07:28:10.391Z,1004.08
2018-05-11T07:29:10.393Z,1004.08
2018-05-11T07:30:10.395Z,1004.07
2018-05-11T07:31:10.394Z,1004.08
2018-05-11T07:32:10.395Z,1004.09
2018-05-11T07:33:10.430Z,1004.07
2018-05-11T07:34:10.401Z,1004.10
2018-05-11T07:35:10.401Z,1004.02
2018-05-11T07:36:10.403Z,1004.04
2018-05-11T07:37:10.405Z,1004.05
2018-05-11T07:38:10.406Z,1004.06
2018-05-11T07:39:10.409Z,1004.02
2018-05-11T07:40:10.410Z,1004.01
2018-05-11T07:41:10.412Z,1004.01
2018-05-11T07:42:10.872Z,1003.99
2018-05-11T07:43:10.531Z,1004.00
2018-05-11T07:44:10.415Z,1003.98
2018-05-11T07:45:10.470Z,1003.98
2018-05-11T07:46:10.419Z,1004.00
2018-05-11T07:47:10.421Z,1003.99
2018-05-11T07:48:10.425Z,1003.99
2018-05-11T07:49:10.424Z,1003.99
2018-05-11T07:50:10.431Z,1004.01
2018-05-11T07:51:10.436Z,1004.00
2018-05-11T07:52:10.446Z,1003.98
2018-05-11T07:53:10.432Z,1003.94
2018-05-11T07:54:10.435Z,1003.98
2018-05-11T07:55:10.435Z,1004.00
2018-05-11T07:56:10.436Z,1004.02
2018-05-11T07:57:10.445Z,1004.01
2018-05-11T07:58:10.441Z,1003.99
2018-05-11T07:59:10.441Z,1004.00
2018-05-11T08:00:10.446Z,1004.00
2018-05-11T08:01:10.445Z,1004.00
2018-05-11T08:02:10.456Z,1004.01
2018-05-11T08:03:10.451Z,1004.01
2018-05-11T08:04:10.450Z,1004.00
2018-05-11T08:05:10.450Z,1003.99
2018-05-11T08:06:10.455Z,1004.00
2018-05-11T08:07:10.457Z,1004.01
2018-05-11T08:08:10.458Z,1003.98
2018-05-11T08:09:10.456Z,1003.95
2018-05-11T08:10:10.463Z,1003.94
2018-05-11T08:11:10.459Z,1003.99
2018-05-11T08:12:10.468Z,1004.00
2018-05-11T08:13:11.247Z,1004.04
2018-05-11T08:14:10.512Z,1004.01
2018-05-11T08:15:10.467Z,1004.04
2018-05-11T08:16:10.477Z,1004.08
2018-05-11T08:17:10.470Z,1004.09
2018-05-11T08:18:10.473Z,1004.10
2018-05-11T08:19:10.481Z,1004.11
2018-05-11T08:20:10.476Z,1004.10
2018-05-11T08:21:10.478Z,1004.05
2018-05-11T08:22:10.480Z,1004.07
2018-05-11T08:23:10.480Z,1004.07
2018-05-11T08:24:10.484Z,1004.08
2018-05-11T08:25:10.486Z,1004.06
2018-05-11T08:26:10.489Z,1004.09
2018-05-11T08:27:10.490Z,1004.05
2018-05-11T08:28:10.492Z,1004.06
2018-05-11T08:29:10.494Z,1004.07
2018-05-11T08:30:10.495Z,1004.03
2018-05-11T08:31:10.571Z,1004.05
2018-05-11T08:32:10.499Z,1004.07
2018-05-11T08:33:10.504Z,1004.05
2018-05-11T08:34:10.503Z,1004.06
2018-05-11T08:35:10.504Z,1004.06
2018-05-11T08:36:10.524Z,1004.04
2018-05-11T08:37:10.512Z,1004.06
2018-05-11T08:38:10.511Z,1004.06
2018-05-11T08:39:10.514Z,1004.10
2018-05-11T08:40:10.515Z,1004.09
2018-05-11T08:41:10.519Z,1004.10
2018-05-11T08:42:10.523Z,1004.05
2018-05-11T08:43:10.523Z,1004.05
2018-05-11T08:44:10.523Z,1004.06
2018-05-11T08:45:10.525Z,1004.02
2018-05-11T08:46:10.527Z,1003.99
2018-05-11T08:47:10.534Z,1003.99
2018-05-11T08:48:10.531Z,1003.99
2018-05-11T08:49:10.536Z,1003.97
2018-05-11T08:50:10.536Z,1003.94
2018-05-11T08:51:10.536Z,1003.98
2018-05-11T08:52:10.550Z,1003.97
2018-05-11T08:53:10.543Z,1003.97
2018-05-11T08:54:10.544Z,1004.04
2018-05-11T08:55:10.548Z,1004.00
2018-05-11T08:56:10.547Z,1003.96
2018-05-11T08:57:10.618Z,1004.05
2018-05-11T08:58:10.552Z,1003.99
2018-05-11T08:59:10.553Z,1004.00
2018-05-11T09:00:10.555Z,1003.99
2018-05-11T09:01:10.560Z,1003.97
2018-05-11T09:02:10.566Z,1004.02
2018-05-11T09:03:10.564Z,1004.00
2018-05-11T09:04:10.565Z,1003.99
2018-05-11T09:05:10.568Z,1003.97
2018-05-11T09:06:10.569Z,1003.96
2018-05-11T09:07:10.571Z,1004.00
2018-05-11T09:08:10.573Z,1004.03
2018-05-11T09:09:10.577Z,1004.02
2018-05-11T09:10:10.581Z,1004.02
2018-05-11T09:11:10.592Z,1004.02
2018-05-11T09:12:10.584Z,1004.09
2018-05-11T09:13:10.587Z,1004.06
2018-05-11T09:14:10.595Z,1004.12
2018-05-11T09:15:10.590Z,1004.12
2018-05-11T09:16:10.594Z,1004.10
2018-05-11T09:17:10.595Z,1004.16
2018-05-11T09:18:10.604Z,1004.15
2018-05-11T09:19:10.603Z,1004.10
2018-05-11T09:20:10.610Z,1004.08
2018-05-11T09:21:10.608Z,1004.06
2018-05-11T09:22:10.612Z,1004.00
2018-05-11T09:23:10.614Z,1003.99
2018-05-11T09:24:10.612Z,1003.97
2018-05-11T09:25:10.612Z,1004.01
2018-05-11T09:26:10.622Z,1004.00
2018-05-11T09:27:10.616Z,1004.00
2018-05-11T09:28:10.620Z,1004.05
2018-05-11T09:29:10.647Z,1004.00
2018-05-11T09:30:10.625Z,1003.97
2018-05-11T09:31:10.626Z,1003.95
2018-05-11T09:32:10.630Z,1003.97
2018-05-11T09:33:10.633Z,1003.97
2018-05-11T09:34:10.637Z,1003.98
2018-05-11T09:35:10.636Z,1003.97
2018-05-11T09:36:10.638Z,1003.97
2018-05-11T09:37:10.688Z,1003.95
2018-05-11T09:38:10.644Z,1003.97
2018-05-11T09:39:10.648Z,1003.99
2018-05-11T09:40:10.655Z,1003.98
2018-05-11T09:41:10.657Z,1003.94
2018-05-11T09:42:10.658Z,1003.96
2018-05-11T09:43:10.657Z,1003.98
2018-05-11T09:44:10.710Z,1003.95
2018-05-11T09:45:12.015Z,1004.02
2018-05-11T09:46:10.675Z,1003.97
2018-05-11T09:47:10.668Z,1003.98
2018-05-11T09:48:10.682Z,1003.99
2018-05-11T09:49:10.674Z,1004.01
2018-05-11T09:50:10.678Z,1003.98
2018-05-11T09:51:10.683Z,1004.00
2018-05-11T09:52:10.690Z,1004.00
2018-05-11T09:53:10.687Z,1004.02
2018-05-11T09:54:10.692Z,1004.00
2018-05-11T09:55:10.789Z,1004.02
2018-05-11T09:56:10.700Z,1004.02
2018-05-11T09:57:10.705Z,1003.97
2018-05-11T09:58:10.706Z,1004.05
2018-05-11T09:59:10.710Z,1003.99
2018-05-11T10:00:10.713Z,1004.03
2018-05-11T10:01:10.717Z,1004.02
2018-05-11T10:02:10.725Z,1003.96
2018-05-11T10:03:10.729Z,1003.97
2018-05-11T10:04:10.742Z,1003.96
2018-05-11T10:05:10.787Z,1003.98
2018-05-11T10:06:10.734Z,1003.95
2018-05-11T10:07:10.738Z,1003.99
2018-05-11T10:08:10.742Z,1003.96
2018-05-11T10:09:10.761Z,1003.93
2018-05-11T10:10:10.749Z,1003.90
2018-05-11T10:11:10.753Z,1003.96
2018-05-11T10:12:10.755Z,1003.93
2018-05-11T10:13:10.768Z,1003.93
2018-05-11T10:14:10.763Z,1003.96
2018-05-11T10:15:10.764Z,1003.96
2018-05-11T10:16:10.831Z,1003.98
2018-05-11T10:17:10.771Z,1004.00
2018-05-11T10:18:10.774Z,1003.95
2018-05-11T10:19:10.778Z,1003.92
2018-05-11T10:20:10.785Z,1003.94
2018-05-11T10:21:10.784Z,1003.88
2018-05-11T10:22:10.789Z,1003.91
2018-05-11T10:23:10.791Z,1003.90
2018-05-11T10:24:10.809Z,1003.89
2018-05-11T10:25:10.799Z,1003.86
2018-05-11T10:26:10.807Z,1003.81
2018-05-11T10:27:10.809Z,1003.85
2018-05-11T10:28:10.878Z,1003.86
2018-05-11T10:29:10.894Z,1003.89
2018-05-11T10:30:10.827Z,1003.84
2018-05-11T10:31:10.832Z,1003.95
2018-05-11T10:32:10.887Z,1003.91
2018-05-11T10:33:10.847Z,1003.91
2018-05-11T10:34:10.856Z,1003.87
2018-05-11T10:35:10.864Z,1003.88
2018-05-11T10:36:10.869Z,1003.83
2018-05-11T10:37:10.924Z,1003.85
2018-05-11T10:38:10.887Z,1003.84
2018-05-11T10:39:10.898Z,1003.91
2018-05-11T10:40:10.914Z,1003.91
2018-05-11T10:41:10.915Z,1003.95
2018-05-11T10:42:10.927Z,1003.89
2018-05-11T10:43:10.934Z,1003.86
2018-05-11T10:44:10.947Z,1003.84
2018-05-11T10:45:10.962Z,1003.83
2018-05-11T10:46:10.965Z,1003.85
2018-05-11T10:47:11.276Z,1003.88
2018-05-11T10:48:10.991Z,1003.88
2018-05-11T10:49:10.997Z,1003.88
2018-05-11T10:50:11.009Z,1003.88
2018-05-11T10:51:11.018Z,1003.85
2018-05-11T10:52:11.029Z,1003.84
2018-05-11T10:53:11.041Z,1003.85
2018-05-11T10:54:11.053Z,1003.87
2018-05-11T10:55:11.072Z,1003.88
2018-05-11T10:56:11.076Z,1003.89
2018-05-11T10:57:19.025Z,1003.92
2018-05-11T10:58:11.112Z,1003.86
2018-05-11T10:59:11.221Z,1003.88
2018-05-11T11:00:11.151Z,1003.87
2018-05-11T11:01:11.169Z,1003.85
2018-05-11T11:02:11.166Z,1003.88
2018-05-11T11:03:11.164Z,1003.87
2018-05-11T11:04:11.172Z,1003.87
2018-05-11T11:05:11.234Z,1003.85
2018-05-11T11:06:11.267Z,1003.86
2018-05-11T11:07:11.217Z,1003.81
2018-05-11T11:08:11.228Z,1003.82
2018-05-11T11:09:11.245Z,1003.85
2018-05-11T11:10:11.335Z,1003.81
2018-05-11T11:11:11.270Z,1003.77
2018-05-11T11:12:11.280Z,1003.75
2018-05-11T11:13:11.339Z,1003.79
2018-05-11T11:14:11.323Z,1003.72
2018-05-11T11:15:11.320Z,1003.71
2018-05-11T11:16:12.993Z,1003.73
2018-05-11T11:17:12.996Z,1003.69
2018-05-11T11:18:13.003Z,1003.67
2018-05-11T11:19:11.381Z,1003.72
2018-05-11T11:20:11.436Z,1003.72
2018-05-11T11:21:11.416Z,1003.72
2018-05-11T11:22:11.452Z,1003.71
2018-05-11T11:23:14.000Z,1003.69
2018-05-11T11:24:11.466Z,1003.73
2018-05-11T11:25:11.570Z,1003.71
2018-05-11T11:26:11.470Z,1003.70
2018-05-11T11:27:11.491Z,1003.69
2018-05-11T11:28:11.542Z,1003.70
2018-05-11T11:29:11.510Z,1003.74
2018-05-11T11:30:11.520Z,1003.67
2018-05-11T11:31:11.548Z,1003.63
2018-05-11T11:32:11.580Z,1003.68
2018-05-11T11:33:11.564Z,1003.65
2018-05-11T11:34:11.562Z,1003.65
2018-05-11T11:35:11.571Z,1003.62
2018-05-11T11:36:11.585Z,1003.62
2018-05-11T11:37:11.595Z,1003.60
2018-05-11T11:38:11.608Z,1003.64
2018-05-11T11:39:11.613Z,1003.64
2018-05-11T11:40:11.646Z,1003.64
2018-05-11T11:41:11.636Z,1003.61
2018-05-11T11:42:11.729Z,1003.64
2018-05-11T11:43:11.651Z,1003.62
2018-05-11T11:44:11.753Z,1003.61
2018-05-11T11:45:11.924Z,1003.56
2018-05-11T11:46:11.713Z,1003.54
2018-05-11T11:47:11.697Z,1003.54
2018-05-11T11:48:11.735Z,1003.51
2018-05-11T11:49:12.024Z,1003.48
2018-05-11T11:50:11.718Z,1003.51
2018-05-11T11:51:11.725Z,1003.49
2018-05-11T11:52:11.729Z,1003.48
2018-05-11T11:53:11.747Z,1003.44
2018-05-11T11:54:11.760Z,1003.43
2018-05-11T11:55:11.756Z,1003.42
2018-05-11T11:56:11.777Z,1003.41
2018-05-11T11:57:11.772Z,1003.41
2018-05-11T11:58:11.783Z,1003.40
2018-05-11T11:59:11.793Z,1003.46
2018-05-11T12:00:11.830Z,1003.41
2018-05-11T12:01:11.804Z,1003.42
2018-05-11T12:02:11.811Z,1003.44
2018-05-11T12:03:11.819Z,1003.41
2018-05-11T12:04:11.827Z,1003.37
2018-05-11T12:05:11.836Z,1003.36